sensor_id;sensor_type;location;lat;lon;timestamp;P1;durP1;ratioP1;P2;durP2;ratioP2
16890;SDS011;8562;52.246;20.966;2022-08-14T00:02:24;6.60;;;5.60;;
16890;SDS011;8562;52.246;20.966;2022-08-14T00:04:50;6.90;;;5.60;;
16890;SDS011;8562;52.246;20.966;2022-08-14T00:07:17;5.80;;;4.90;;
16890;SDS011;8562;52.246;20.966;2022-08-14T00:09:43;6.90;;;5.47;;
16890;SDS011;8562;52.246;20.966;2022-08-14T00:12:09;7.63;;;5.97;;
16890;SDS011;8562;52.246;20.966;2022-08-14T00:14:36;6.23;;;5.63;;
16890;SDS011;8562;52.246;20.966;2022-08-14T00:17:03;8.30;;;5.80;;
16890;SDS011;8562;52.246;20.966;2022-08-14T00:19:29;6.27;;;5.17;;
16890;SDS011;8562;52.246;20.966;2022-08-14T00:21:55;8.90;;;5.73;;
16890;SDS011;8562;52.246;20.966;2022-08-14T00:24:22;5.47;;;4.97;;
16890;SDS011;8562;52.246;20.966;2022-08-14T00:26:48;7.07;;;5.27;;
16890;SDS011;8562;52.246;20.966;2022-08-14T00:29:14;7.13;;;5.73;;
16890;SDS011;8562;52.246;20.966;2022-08-14T00:31:41;6.03;;;5.33;;
16890;SDS011;8562;52.246;20.966;2022-08-14T00:34:07;7.20;;;5.13;;
16890;SDS011;8562;52.246;20.966;2022-08-14T00:36:33;5.67;;;5.10;;
16890;SDS011;8562;52.246;20.966;2022-08-14T00:38:59;8.63;;;5.83;;
16890;SDS011;8562;52.246;20.966;2022-08-14T00:41:29;6.77;;;5.10;;
16890;SDS011;8562;52.246;20.966;2022-08-14T00:43:55;6.20;;;5.37;;
16890;SDS011;8562;52.246;20.966;2022-08-14T00:46:21;7.50;;;5.20;;
16890;SDS011;8562;52.246;20.966;2022-08-14T00:48:47;5.73;;;5.20;;
16890;SDS011;8562;52.246;20.966;2022-08-14T00:51:14;7.10;;;5.37;;
16890;SDS011;8562;52.246;20.966;2022-08-14T00:53:40;9.23;;;5.47;;
16890;SDS011;8562;52.246;20.966;2022-08-14T00:56:07;11.77;;;5.30;;
16890;SDS011;8562;52.246;20.966;2022-08-14T00:58:34;7.43;;;5.63;;
16890;SDS011;8562;52.246;20.966;2022-08-14T01:01:03;5.20;;;4.60;;
16890;SDS011;8562;52.246;20.966;2022-08-14T01:03:30;4.50;;;4.00;;
16890;SDS011;8562;52.246;20.966;2022-08-14T01:05:58;5.03;;;4.50;;
16890;SDS011;8562;52.246;20.966;2022-08-14T01:08:25;6.70;;;5.13;;
16890;SDS011;8562;52.246;20.966;2022-08-14T01:10:53;9.07;;;5.03;;
16890;SDS011;8562;52.246;20.966;2022-08-14T01:13:22;5.83;;;5.20;;
16890;SDS011;8562;52.246;20.966;2022-08-14T01:15:50;10.33;;;5.00;;
16890;SDS011;8562;52.246;20.966;2022-08-14T01:18:17;5.40;;;4.57;;
16890;SDS011;8562;52.246;20.966;2022-08-14T01:21:02;6.17;;;4.40;;
16890;SDS011;8562;52.246;20.966;2022-08-14T01:23:31;6.23;;;5.53;;
16890;SDS011;8562;52.246;20.966;2022-08-14T01:25:57;6.37;;;5.00;;
16890;SDS011;8562;52.246;20.966;2022-08-14T01:28:23;6.07;;;4.83;;
16890;SDS011;8562;52.246;20.966;2022-08-14T01:30:53;6.13;;;5.13;;
16890;SDS011;8562;52.246;20.966;2022-08-14T01:33:22;8.37;;;4.60;;
16890;SDS011;8562;52.246;20.966;2022-08-14T01:35:53;6.97;;;5.13;;
16890;SDS011;8562;52.246;20.966;2022-08-14T01:38:20;5.13;;;4.63;;
16890;SDS011;8562;52.246;20.966;2022-08-14T01:40:47;6.33;;;4.30;;
16890;SDS011;8562;52.246;20.966;2022-08-14T01:43:13;5.80;;;5.17;;
16890;SDS011;8562;52.246;20.966;2022-08-14T01:45:44;5.33;;;4.30;;
16890;SDS011;8562;52.246;20.966;2022-08-14T01:48:17;6.10;;;4.70;;
16890;SDS011;8562;52.246;20.966;2022-08-14T01:50:43;6.53;;;4.67;;
16890;SDS011;8562;52.246;20.966;2022-08-14T01:53:09;5.33;;;4.63;;
16890;SDS011;8562;52.246;20.966;2022-08-14T01:55:36;6.00;;;4.53;;
16890;SDS011;8562;52.246;20.966;2022-08-14T01:58:03;5.93;;;5.33;;
16890;SDS011;8562;52.246;20.966;2022-08-14T02:00:29;4.90;;;4.40;;
16890;SDS011;8562;52.246;20.966;2022-08-14T02:02:56;5.67;;;4.73;;
16890;SDS011;8562;52.246;20.966;2022-08-14T02:05:24;5.43;;;4.90;;
16890;SDS011;8562;52.246;20.966;2022-08-14T02:07:53;5.43;;;4.43;;
16890;SDS011;8562;52.246;20.966;2022-08-14T02:10:20;5.23;;;4.60;;
16890;SDS011;8562;52.246;20.966;2022-08-14T02:12:46;5.80;;;4.30;;
16890;SDS011;8562;52.246;20.966;2022-08-14T02:15:13;9.30;;;4.73;;
16890;SDS011;8562;52.246;20.966;2022-08-14T02:17:43;5.07;;;4.57;;
16890;SDS011;8562;52.246;20.966;2022-08-14T02:20:09;5.40;;;4.00;;
16890;SDS011;8562;52.246;20.966;2022-08-14T02:22:38;3.97;;;3.57;;
16890;SDS011;8562;52.246;20.966;2022-08-14T02:25:04;6.40;;;4.87;;
16890;SDS011;8562;52.246;20.966;2022-08-14T02:27:30;5.20;;;4.27;;
16890;SDS011;8562;52.246;20.966;2022-08-14T02:29:56;7.50;;;4.43;;
16890;SDS011;8562;52.246;20.966;2022-08-14T02:32:23;6.07;;;4.83;;
16890;SDS011;8562;52.246;20.966;2022-08-14T02:34:49;6.00;;;4.63;;
16890;SDS011;8562;52.246;20.966;2022-08-14T02:37:15;5.00;;;4.37;;
16890;SDS011;8562;52.246;20.966;2022-08-14T02:39:42;6.20;;;4.30;;
16890;SDS011;8562;52.246;20.966;2022-08-14T02:42:14;7.43;;;4.90;;
16890;SDS011;8562;52.246;20.966;2022-08-14T02:44:43;13.07;;;4.67;;
16890;SDS011;8562;52.246;20.966;2022-08-14T02:47:09;5.63;;;4.87;;
16890;SDS011;8562;52.246;20.966;2022-08-14T02:49:36;4.93;;;4.47;;
16890;SDS011;8562;52.246;20.966;2022-08-14T02:52:03;4.53;;;3.97;;
16890;SDS011;8562;52.246;20.966;2022-08-14T02:54:31;7.00;;;4.33;;
16890;SDS011;8562;52.246;20.966;2022-08-14T02:56:58;5.80;;;4.30;;
16890;SDS011;8562;52.246;20.966;2022-08-14T02:59:25;5.20;;;4.50;;
16890;SDS011;8562;52.246;20.966;2022-08-14T03:01:53;7.40;;;4.43;;
16890;SDS011;8562;52.246;20.966;2022-08-14T03:04:21;6.80;;;3.73;;
16890;SDS011;8562;52.246;20.966;2022-08-14T03:06:48;4.57;;;4.10;;
16890;SDS011;8562;52.246;20.966;2022-08-14T03:09:15;6.63;;;4.33;;
16890;SDS011;8562;52.246;20.966;2022-08-14T03:11:41;5.77;;;4.40;;
16890;SDS011;8562;52.246;20.966;2022-08-14T03:14:09;5.63;;;4.23;;
16890;SDS011;8562;52.246;20.966;2022-08-14T03:16:37;5.53;;;4.50;;
16890;SDS011;8562;52.246;20.966;2022-08-14T03:19:04;4.70;;;4.20;;
16890;SDS011;8562;52.246;20.966;2022-08-14T03:21:31;5.90;;;4.47;;
16890;SDS011;8562;52.246;20.966;2022-08-14T03:23:58;5.33;;;4.67;;
16890;SDS011;8562;52.246;20.966;2022-08-14T03:26:40;6.33;;;3.43;;
16890;SDS011;8562;52.246;20.966;2022-08-14T03:29:07;7.70;;;4.53;;
16890;SDS011;8562;52.246;20.966;2022-08-14T03:31:33;4.63;;;4.23;;
16890;SDS011;8562;52.246;20.966;2022-08-14T03:34:02;8.83;;;4.33;;
16890;SDS011;8562;52.246;20.966;2022-08-14T03:36:28;6.87;;;4.07;;
16890;SDS011;8562;52.246;20.966;2022-08-14T03:38:58;5.60;;;3.97;;
16890;SDS011;8562;52.246;20.966;2022-08-14T03:41:25;6.03;;;4.67;;
16890;SDS011;8562;52.246;20.966;2022-08-14T03:43:53;5.13;;;4.50;;
16890;SDS011;8562;52.246;20.966;2022-08-14T03:46:26;6.17;;;4.70;;
16890;SDS011;8562;52.246;20.966;2022-08-14T03:48:54;4.63;;;4.17;;
16890;SDS011;8562;52.246;20.966;2022-08-14T03:51:21;6.93;;;4.63;;
16890;SDS011;8562;52.246;20.966;2022-08-14T03:53:51;5.03;;;4.40;;
16890;SDS011;8562;52.246;20.966;2022-08-14T03:56:17;7.53;;;4.60;;
16890;SDS011;8562;52.246;20.966;2022-08-14T03:58:44;5.07;;;4.23;;
16890;SDS011;8562;52.246;20.966;2022-08-14T04:01:11;5.20;;;4.30;;
16890;SDS011;8562;52.246;20.966;2022-08-14T04:03:37;4.73;;;4.30;;
16890;SDS011;8562;52.246;20.966;2022-08-14T04:06:04;5.80;;;4.23;;
16890;SDS011;8562;52.246;20.966;2022-08-14T04:08:35;5.97;;;4.30;;
16890;SDS011;8562;52.246;20.966;2022-08-14T04:11:02;4.43;;;3.90;;
16890;SDS011;8562;52.246;20.966;2022-08-14T04:13:29;5.70;;;4.30;;
16890;SDS011;8562;52.246;20.966;2022-08-14T04:15:55;5.73;;;4.67;;
16890;SDS011;8562;52.246;20.966;2022-08-14T04:18:21;4.77;;;3.90;;
16890;SDS011;8562;52.246;20.966;2022-08-14T04:20:48;5.87;;;4.33;;
16890;SDS011;8562;52.246;20.966;2022-08-14T04:23:14;5.27;;;4.13;;
16890;SDS011;8562;52.246;20.966;2022-08-14T04:25:41;8.77;;;4.73;;
16890;SDS011;8562;52.246;20.966;2022-08-14T04:28:08;7.13;;;4.77;;
16890;SDS011;8562;52.246;20.966;2022-08-14T04:30:36;6.10;;;4.60;;
16890;SDS011;8562;52.246;20.966;2022-08-14T04:33:05;6.13;;;4.47;;
16890;SDS011;8562;52.246;20.966;2022-08-14T04:35:36;7.40;;;4.43;;
16890;SDS011;8562;52.246;20.966;2022-08-14T04:38:05;5.23;;;4.73;;
16890;SDS011;8562;52.246;20.966;2022-08-14T04:40:50;4.87;;;4.33;;
16890;SDS011;8562;52.246;20.966;2022-08-14T04:43:35;6.67;;;4.40;;
16890;SDS011;8562;52.246;20.966;2022-08-14T04:46:02;5.20;;;4.70;;
16890;SDS011;8562;52.246;20.966;2022-08-14T04:48:28;4.70;;;4.30;;
16890;SDS011;8562;52.246;20.966;2022-08-14T04:50:55;4.53;;;4.13;;
16890;SDS011;8562;52.246;20.966;2022-08-14T04:53:22;4.93;;;4.37;;
16890;SDS011;8562;52.246;20.966;2022-08-14T04:55:49;4.90;;;4.40;;
16890;SDS011;8562;52.246;20.966;2022-08-14T04:58:19;6.17;;;4.70;;
16890;SDS011;8562;52.246;20.966;2022-08-14T05:00:47;6.93;;;5.10;;
16890;SDS011;8562;52.246;20.966;2022-08-14T05:03:18;5.80;;;4.67;;
16890;SDS011;8562;52.246;20.966;2022-08-14T05:05:46;8.60;;;4.83;;
16890;SDS011;8562;52.246;20.966;2022-08-14T05:08:12;6.67;;;4.47;;
16890;SDS011;8562;52.246;20.966;2022-08-14T05:10:39;7.60;;;5.30;;
16890;SDS011;8562;52.246;20.966;2022-08-14T05:13:06;9.20;;;5.30;;
16890;SDS011;8562;52.246;20.966;2022-08-14T05:15:36;6.00;;;5.07;;
16890;SDS011;8562;52.246;20.966;2022-08-14T05:18:07;6.83;;;5.30;;
16890;SDS011;8562;52.246;20.966;2022-08-14T05:20:47;6.80;;;5.17;;
16890;SDS011;8562;52.246;20.966;2022-08-14T05:23:16;7.07;;;5.53;;
16890;SDS011;8562;52.246;20.966;2022-08-14T05:25:43;6.43;;;5.63;;
16890;SDS011;8562;52.246;20.966;2022-08-14T05:30:53;7.10;;;5.30;;
16890;SDS011;8562;52.246;20.966;2022-08-14T05:33:21;6.13;;;5.00;;
16890;SDS011;8562;52.246;20.966;2022-08-14T05:35:49;8.07;;;5.70;;
16890;SDS011;8562;52.246;20.966;2022-08-14T05:38:17;6.77;;;5.03;;
16890;SDS011;8562;52.246;20.966;2022-08-14T05:40:44;6.03;;;5.23;;
16890;SDS011;8562;52.246;20.966;2022-08-14T05:43:11;5.70;;;5.20;;
16890;SDS011;8562;52.246;20.966;2022-08-14T05:45:37;6.77;;;5.47;;
16890;SDS011;8562;52.246;20.966;2022-08-14T05:48:04;7.33;;;5.63;;
16890;SDS011;8562;52.246;20.966;2022-08-14T05:50:31;6.97;;;5.77;;
16890;SDS011;8562;52.246;20.966;2022-08-14T05:52:59;7.93;;;5.50;;
16890;SDS011;8562;52.246;20.966;2022-08-14T05:55:25;11.60;;;6.27;;
16890;SDS011;8562;52.246;20.966;2022-08-14T06:00:18;7.50;;;6.30;;
16890;SDS011;8562;52.246;20.966;2022-08-14T06:02:45;8.57;;;5.63;;
16890;SDS011;8562;52.246;20.966;2022-08-14T06:05:11;5.73;;;5.00;;
16890;SDS011;8562;52.246;20.966;2022-08-14T06:07:37;6.83;;;5.90;;
16890;SDS011;8562;52.246;20.966;2022-08-14T06:10:04;9.57;;;5.67;;
16890;SDS011;8562;52.246;20.966;2022-08-14T06:12:31;11.53;;;6.23;;
16890;SDS011;8562;52.246;20.966;2022-08-14T06:14:57;7.03;;;5.90;;
16890;SDS011;8562;52.246;20.966;2022-08-14T06:17:25;7.30;;;5.80;;
16890;SDS011;8562;52.246;20.966;2022-08-14T06:19:51;8.70;;;6.87;;
16890;SDS011;8562;52.246;20.966;2022-08-14T06:22:18;8.87;;;6.50;;
16890;SDS011;8562;52.246;20.966;2022-08-14T06:24:44;10.73;;;6.43;;
16890;SDS011;8562;52.246;20.966;2022-08-14T06:27:10;8.80;;;6.10;;
16890;SDS011;8562;52.246;20.966;2022-08-14T06:29:36;10.27;;;6.77;;
16890;SDS011;8562;52.246;20.966;2022-08-14T06:32:03;10.57;;;7.53;;
16890;SDS011;8562;52.246;20.966;2022-08-14T06:34:29;9.50;;;6.37;;
16890;SDS011;8562;52.246;20.966;2022-08-14T06:36:56;11.87;;;6.87;;
16890;SDS011;8562;52.246;20.966;2022-08-14T06:39:22;8.77;;;6.57;;
16890;SDS011;8562;52.246;20.966;2022-08-14T06:41:49;7.50;;;6.70;;
16890;SDS011;8562;52.246;20.966;2022-08-14T06:44:15;9.03;;;6.23;;
16890;SDS011;8562;52.246;20.966;2022-08-14T06:46:41;7.07;;;5.90;;
16890;SDS011;8562;52.246;20.966;2022-08-14T06:49:08;9.40;;;6.13;;
16890;SDS011;8562;52.246;20.966;2022-08-14T06:51:34;6.80;;;6.10;;
16890;SDS011;8562;52.246;20.966;2022-08-14T06:54:00;8.80;;;6.53;;
16890;SDS011;8562;52.246;20.966;2022-08-14T06:56:26;8.63;;;6.80;;
16890;SDS011;8562;52.246;20.966;2022-08-14T06:58:52;8.67;;;6.57;;
16890;SDS011;8562;52.246;20.966;2022-08-14T07:01:19;9.43;;;7.63;;
16890;SDS011;8562;52.246;20.966;2022-08-14T07:04:03;12.33;;;7.37;;
16890;SDS011;8562;52.246;20.966;2022-08-14T07:06:48;11.10;;;7.73;;
16890;SDS011;8562;52.246;20.966;2022-08-14T07:09:14;8.70;;;7.07;;
16890;SDS011;8562;52.246;20.966;2022-08-14T07:11:40;8.03;;;7.00;;
16890;SDS011;8562;52.246;20.966;2022-08-14T07:14:06;9.07;;;7.33;;
16890;SDS011;8562;52.246;20.966;2022-08-14T07:16:33;10.73;;;6.53;;
16890;SDS011;8562;52.246;20.966;2022-08-14T07:18:59;9.60;;;6.80;;
16890;SDS011;8562;52.246;20.966;2022-08-14T07:21:25;9.20;;;6.80;;
16890;SDS011;8562;52.246;20.966;2022-08-14T07:23:51;7.10;;;6.40;;
16890;SDS011;8562;52.246;20.966;2022-08-14T07:26:17;8.00;;;6.63;;
16890;SDS011;8562;52.246;20.966;2022-08-14T07:28:43;10.47;;;7.23;;
16890;SDS011;8562;52.246;20.966;2022-08-14T07:31:10;7.80;;;6.17;;
16890;SDS011;8562;52.246;20.966;2022-08-14T07:33:44;7.43;;;6.60;;
16890;SDS011;8562;52.246;20.966;2022-08-14T07:36:12;7.47;;;6.27;;
16890;SDS011;8562;52.246;20.966;2022-08-14T07:38:39;9.00;;;6.23;;
16890;SDS011;8562;52.246;20.966;2022-08-14T07:41:05;8.07;;;6.10;;
16890;SDS011;8562;52.246;20.966;2022-08-14T07:43:32;10.20;;;6.83;;
16890;SDS011;8562;52.246;20.966;2022-08-14T07:45:58;9.10;;;6.60;;
16890;SDS011;8562;52.246;20.966;2022-08-14T07:48:24;11.13;;;7.10;;
16890;SDS011;8562;52.246;20.966;2022-08-14T07:50:50;9.80;;;7.17;;
16890;SDS011;8562;52.246;20.966;2022-08-14T07:53:18;9.73;;;7.40;;
16890;SDS011;8562;52.246;20.966;2022-08-14T07:55:45;8.67;;;6.63;;
16890;SDS011;8562;52.246;20.966;2022-08-14T07:58:12;8.53;;;7.20;;
16890;SDS011;8562;52.246;20.966;2022-08-14T08:00:39;7.83;;;6.60;;
16890;SDS011;8562;52.246;20.966;2022-08-14T08:03:05;8.50;;;6.70;;
16890;SDS011;8562;52.246;20.966;2022-08-14T08:05:34;8.17;;;6.83;;
16890;SDS011;8562;52.246;20.966;2022-08-14T08:08:00;9.17;;;6.20;;
16890;SDS011;8562;52.246;20.966;2022-08-14T08:10:27;7.77;;;6.97;;
16890;SDS011;8562;52.246;20.966;2022-08-14T08:15:30;12.87;;;8.00;;
16890;SDS011;8562;52.246;20.966;2022-08-14T08:17:57;9.20;;;7.63;;
16890;SDS011;8562;52.246;20.966;2022-08-14T08:20:24;9.00;;;7.20;;
16890;SDS011;8562;52.246;20.966;2022-08-14T08:22:51;9.43;;;7.50;;
16890;SDS011;8562;52.246;20.966;2022-08-14T08:25:23;9.30;;;7.80;;
16890;SDS011;8562;52.246;20.966;2022-08-14T08:30:28;9.80;;;7.47;;
16890;SDS011;8562;52.246;20.966;2022-08-14T08:32:56;8.13;;;7.27;;
16890;SDS011;8562;52.246;20.966;2022-08-14T08:35:24;9.10;;;6.83;;
16890;SDS011;8562;52.246;20.966;2022-08-14T08:37:51;11.43;;;7.90;;
16890;SDS011;8562;52.246;20.966;2022-08-14T08:40:24;8.73;;;7.87;;
16890;SDS011;8562;52.246;20.966;2022-08-14T08:42:50;8.97;;;7.10;;
16890;SDS011;8562;52.246;20.966;2022-08-14T08:45:17;8.50;;;7.17;;
16890;SDS011;8562;52.246;20.966;2022-08-14T08:47:43;9.47;;;7.67;;
16890;SDS011;8562;52.246;20.966;2022-08-14T08:50:19;11.27;;;8.03;;
16890;SDS011;8562;52.246;20.966;2022-08-14T08:52:46;11.50;;;8.10;;
16890;SDS011;8562;52.246;20.966;2022-08-14T08:55:13;10.27;;;8.30;;
16890;SDS011;8562;52.246;20.966;2022-08-14T08:57:40;10.37;;;7.90;;
16890;SDS011;8562;52.246;20.966;2022-08-14T09:00:16;12.87;;;7.93;;
16890;SDS011;8562;52.246;20.966;2022-08-14T09:02:55;9.67;;;7.43;;
16890;SDS011;8562;52.246;20.966;2022-08-14T09:05:22;9.40;;;7.83;;
16890;SDS011;8562;52.246;20.966;2022-08-14T09:07:49;10.17;;;7.47;;
16890;SDS011;8562;52.246;20.966;2022-08-14T09:10:15;9.50;;;6.87;;
16890;SDS011;8562;52.246;20.966;2022-08-14T09:12:41;9.60;;;7.37;;
16890;SDS011;8562;52.246;20.966;2022-08-14T09:15:08;10.73;;;7.57;;
16890;SDS011;8562;52.246;20.966;2022-08-14T09:17:34;9.83;;;7.50;;
16890;SDS011;8562;52.246;20.966;2022-08-14T09:20:01;8.50;;;7.07;;
16890;SDS011;8562;52.246;20.966;2022-08-14T09:22:28;8.57;;;7.13;;
16890;SDS011;8562;52.246;20.966;2022-08-14T09:24:55;9.40;;;7.40;;
16890;SDS011;8562;52.246;20.966;2022-08-14T09:27:21;9.37;;;6.93;;
16890;SDS011;8562;52.246;20.966;2022-08-14T09:29:48;8.80;;;7.23;;
16890;SDS011;8562;52.246;20.966;2022-08-14T09:32:15;8.37;;;7.03;;
16890;SDS011;8562;52.246;20.966;2022-08-14T09:47:44;10.10;;;7.33;;
16890;SDS011;8562;52.246;20.966;2022-08-14T09:50:21;10.03;;;7.50;;
16890;SDS011;8562;52.246;20.966;2022-08-14T09:52:52;13.10;;;8.67;;
16890;SDS011;8562;52.246;20.966;2022-08-14T09:55:19;8.93;;;7.20;;
16890;SDS011;8562;52.246;20.966;2022-08-14T09:57:46;10.17;;;8.37;;
16890;SDS011;8562;52.246;20.966;2022-08-14T10:00:13;9.03;;;7.63;;
16890;SDS011;8562;52.246;20.966;2022-08-14T10:02:50;10.97;;;8.43;;
16890;SDS011;8562;52.246;20.966;2022-08-14T10:05:25;9.47;;;8.13;;
16890;SDS011;8562;52.246;20.966;2022-08-14T10:07:52;9.27;;;7.10;;
16890;SDS011;8562;52.246;20.966;2022-08-14T10:12:54;9.17;;;7.10;;
16890;SDS011;8562;52.246;20.966;2022-08-14T10:15:21;14.00;;;7.73;;
16890;SDS011;8562;52.246;20.966;2022-08-14T10:17:49;10.80;;;7.40;;
16890;SDS011;8562;52.246;20.966;2022-08-14T10:20:17;12.80;;;8.23;;
16890;SDS011;8562;52.246;20.966;2022-08-14T10:22:47;11.23;;;8.30;;
16890;SDS011;8562;52.246;20.966;2022-08-14T10:25:14;9.63;;;8.00;;
16890;SDS011;8562;52.246;20.966;2022-08-14T10:27:41;9.10;;;7.60;;
16890;SDS011;8562;52.246;20.966;2022-08-14T10:30:15;10.03;;;7.90;;
16890;SDS011;8562;52.246;20.966;2022-08-14T10:32:42;9.97;;;7.77;;
16890;SDS011;8562;52.246;20.966;2022-08-14T10:35:09;10.83;;;8.60;;
16890;SDS011;8562;52.246;20.966;2022-08-14T10:37:36;9.67;;;7.77;;
16890;SDS011;8562;52.246;20.966;2022-08-14T10:40:03;10.47;;;8.33;;
16890;SDS011;8562;52.246;20.966;2022-08-14T10:42:39;11.90;;;8.23;;
16890;SDS011;8562;52.246;20.966;2022-08-14T10:45:15;10.87;;;8.07;;
16890;SDS011;8562;52.246;20.966;2022-08-14T10:47:44;9.30;;;7.83;;
16890;SDS011;8562;52.246;20.966;2022-08-14T10:50:10;11.90;;;7.83;;
16890;SDS011;8562;52.246;20.966;2022-08-14T10:52:37;10.20;;;7.93;;
16890;SDS011;8562;52.246;20.966;2022-08-14T10:55:07;11.20;;;8.07;;
16890;SDS011;8562;52.246;20.966;2022-08-14T10:57:50;9.70;;;8.13;;
16890;SDS011;8562;52.246;20.966;2022-08-14T11:00:20;12.37;;;7.40;;
16890;SDS011;8562;52.246;20.966;2022-08-14T11:03:04;12.07;;;9.13;;
16890;SDS011;8562;52.246;20.966;2022-08-14T11:05:41;9.47;;;7.83;;
16890;SDS011;8562;52.246;20.966;2022-08-14T11:08:08;9.57;;;8.20;;
16890;SDS011;8562;52.246;20.966;2022-08-14T11:10:43;9.60;;;7.53;;
16890;SDS011;8562;52.246;20.966;2022-08-14T11:13:20;11.87;;;8.77;;
16890;SDS011;8562;52.246;20.966;2022-08-14T11:15:46;11.97;;;9.23;;
16890;SDS011;8562;52.246;20.966;2022-08-14T11:18:13;13.37;;;9.47;;
16890;SDS011;8562;52.246;20.966;2022-08-14T11:20:41;10.13;;;8.60;;
16890;SDS011;8562;52.246;20.966;2022-08-14T11:23:09;13.50;;;8.40;;
16890;SDS011;8562;52.246;20.966;2022-08-14T11:25:36;11.73;;;8.87;;
16890;SDS011;8562;52.246;20.966;2022-08-14T11:28:03;10.87;;;8.30;;
16890;SDS011;8562;52.246;20.966;2022-08-14T11:30:29;10.77;;;8.47;;
16890;SDS011;8562;52.246;20.966;2022-08-14T11:32:56;10.23;;;8.53;;
16890;SDS011;8562;52.246;20.966;2022-08-14T11:35:24;10.37;;;7.90;;
16890;SDS011;8562;52.246;20.966;2022-08-14T11:37:54;10.30;;;7.57;;
16890;SDS011;8562;52.246;20.966;2022-08-14T11:40:21;10.17;;;7.37;;
16890;SDS011;8562;52.246;20.966;2022-08-14T11:42:49;14.17;;;9.17;;
16890;SDS011;8562;52.246;20.966;2022-08-14T11:45:18;10.67;;;8.73;;
16890;SDS011;8562;52.246;20.966;2022-08-14T11:47:44;10.90;;;9.37;;
16890;SDS011;8562;52.246;20.966;2022-08-14T11:50:15;9.67;;;8.23;;
16890;SDS011;8562;52.246;20.966;2022-08-14T11:52:43;10.90;;;8.13;;
16890;SDS011;8562;52.246;20.966;2022-08-14T11:55:10;10.00;;;8.37;;
16890;SDS011;8562;52.246;20.966;2022-08-14T11:57:37;9.77;;;8.37;;
16890;SDS011;8562;52.246;20.966;2022-08-14T12:00:04;10.73;;;8.00;;
16890;SDS011;8562;52.246;20.966;2022-08-14T12:02:32;11.03;;;8.47;;
16890;SDS011;8562;52.246;20.966;2022-08-14T12:04:58;13.03;;;8.57;;
16890;SDS011;8562;52.246;20.966;2022-08-14T12:07:24;10.53;;;8.23;;
16890;SDS011;8562;52.246;20.966;2022-08-14T12:09:51;11.97;;;9.00;;
16890;SDS011;8562;52.246;20.966;2022-08-14T12:12:19;13.40;;;9.13;;
16890;SDS011;8562;52.246;20.966;2022-08-14T12:14:46;10.13;;;8.30;;
16890;SDS011;8562;52.246;20.966;2022-08-14T12:17:13;11.20;;;7.87;;
16890;SDS011;8562;52.246;20.966;2022-08-14T12:19:46;10.57;;;8.00;;
16890;SDS011;8562;52.246;20.966;2022-08-14T12:22:12;10.23;;;8.40;;
16890;SDS011;8562;52.246;20.966;2022-08-14T12:24:38;11.73;;;8.50;;
16890;SDS011;8562;52.246;20.966;2022-08-14T12:27:07;11.10;;;8.50;;
16890;SDS011;8562;52.246;20.966;2022-08-14T12:29:33;9.57;;;8.57;;
16890;SDS011;8562;52.246;20.966;2022-08-14T12:32:00;11.77;;;8.13;;
16890;SDS011;8562;52.246;20.966;2022-08-14T12:34:29;11.00;;;8.47;;
16890;SDS011;8562;52.246;20.966;2022-08-14T12:37:05;11.17;;;9.27;;
16890;SDS011;8562;52.246;20.966;2022-08-14T12:39:32;9.63;;;8.50;;
16890;SDS011;8562;52.246;20.966;2022-08-14T12:41:59;11.37;;;8.67;;
16890;SDS011;8562;52.246;20.966;2022-08-14T12:44:37;12.20;;;8.97;;
16890;SDS011;8562;52.246;20.966;2022-08-14T12:47:13;9.77;;;8.43;;
16890;SDS011;8562;52.246;20.966;2022-08-14T12:49:48;22.50;;;9.50;;
16890;SDS011;8562;52.246;20.966;2022-08-14T12:52:25;11.00;;;9.37;;
16890;SDS011;8562;52.246;20.966;2022-08-14T12:54:58;9.80;;;8.43;;
16890;SDS011;8562;52.246;20.966;2022-08-14T12:57:32;9.20;;;8.13;;
16890;SDS011;8562;52.246;20.966;2022-08-14T13:00:32;10.83;;;8.40;;
16890;SDS011;8562;52.246;20.966;2022-08-14T13:02:52;10.23;;;7.80;;
16890;SDS011;8562;52.246;20.966;2022-08-14T13:05:29;11.97;;;8.13;;
16890;SDS011;8562;52.246;20.966;2022-08-14T13:07:56;9.47;;;7.90;;
16890;SDS011;8562;52.246;20.966;2022-08-14T13:10:23;13.37;;;8.03;;
16890;SDS011;8562;52.246;20.966;2022-08-14T13:12:51;10.23;;;8.17;;
16890;SDS011;8562;52.246;20.966;2022-08-14T13:15:17;8.27;;;7.30;;
16890;SDS011;8562;52.246;20.966;2022-08-14T13:17:45;11.47;;;8.30;;
16890;SDS011;8562;52.246;20.966;2022-08-14T13:20:16;10.90;;;7.93;;
16890;SDS011;8562;52.246;20.966;2022-08-14T13:22:43;10.40;;;7.70;;
16890;SDS011;8562;52.246;20.966;2022-08-14T13:25:13;10.17;;;7.77;;
16890;SDS011;8562;52.246;20.966;2022-08-14T13:27:39;12.20;;;7.73;;
16890;SDS011;8562;52.246;20.966;2022-08-14T13:30:08;8.47;;;6.90;;
16890;SDS011;8562;52.246;20.966;2022-08-14T13:32:35;8.37;;;7.17;;
16890;SDS011;8562;52.246;20.966;2022-08-14T13:35:07;8.33;;;6.90;;
16890;SDS011;8562;52.246;20.966;2022-08-14T13:37:34;9.77;;;7.80;;
16890;SDS011;8562;52.246;20.966;2022-08-14T13:40:00;10.87;;;8.67;;
16890;SDS011;8562;52.246;20.966;2022-08-14T13:42:26;9.93;;;7.50;;
16890;SDS011;8562;52.246;20.966;2022-08-14T13:44:54;10.17;;;7.67;;
16890;SDS011;8562;52.246;20.966;2022-08-14T13:47:21;13.50;;;8.57;;
16890;SDS011;8562;52.246;20.966;2022-08-14T13:49:50;8.20;;;7.37;;
16890;SDS011;8562;52.246;20.966;2022-08-14T13:52:21;9.80;;;7.83;;
16890;SDS011;8562;52.246;20.966;2022-08-14T13:54:49;11.03;;;7.93;;
16890;SDS011;8562;52.246;20.966;2022-08-14T13:57:17;12.37;;;7.50;;
16890;SDS011;8562;52.246;20.966;2022-08-14T13:59:48;11.73;;;8.53;;
16890;SDS011;8562;52.246;20.966;2022-08-14T14:02:15;13.07;;;8.23;;
16890;SDS011;8562;52.246;20.966;2022-08-14T14:04:46;9.30;;;7.73;;
16890;SDS011;8562;52.246;20.966;2022-08-14T14:07:14;9.63;;;7.17;;
16890;SDS011;8562;52.246;20.966;2022-08-14T14:09:41;8.43;;;7.07;;
16890;SDS011;8562;52.246;20.966;2022-08-14T14:12:08;9.90;;;7.70;;
16890;SDS011;8562;52.246;20.966;2022-08-14T14:14:35;8.17;;;7.27;;
16890;SDS011;8562;52.246;20.966;2022-08-14T14:17:08;10.83;;;7.47;;
16890;SDS011;8562;52.246;20.966;2022-08-14T14:19:36;9.30;;;7.80;;
16890;SDS011;8562;52.246;20.966;2022-08-14T14:22:05;8.23;;;7.33;;
16890;SDS011;8562;52.246;20.966;2022-08-14T14:24:32;9.83;;;7.70;;
16890;SDS011;8562;52.246;20.966;2022-08-14T14:26:59;9.70;;;7.00;;
16890;SDS011;8562;52.246;20.966;2022-08-14T14:29:28;9.07;;;7.27;;
16890;SDS011;8562;52.246;20.966;2022-08-14T14:31:57;62.40;;;28.77;;
16890;SDS011;8562;52.246;20.966;2022-08-14T14:34:24;10.23;;;7.03;;
16890;SDS011;8562;52.246;20.966;2022-08-14T14:36:50;8.77;;;7.60;;
16890;SDS011;8562;52.246;20.966;2022-08-14T14:39:22;7.77;;;6.90;;
16890;SDS011;8562;52.246;20.966;2022-08-14T14:41:52;9.70;;;7.43;;
16890;SDS011;8562;52.246;20.966;2022-08-14T14:44:27;11.00;;;7.73;;
16890;SDS011;8562;52.246;20.966;2022-08-14T14:46:56;12.57;;;8.37;;
16890;SDS011;8562;52.246;20.966;2022-08-14T14:49:23;8.80;;;6.80;;
16890;SDS011;8562;52.246;20.966;2022-08-14T14:51:49;8.07;;;7.17;;
16890;SDS011;8562;52.246;20.966;2022-08-14T14:54:16;10.80;;;7.43;;
16890;SDS011;8562;52.246;20.966;2022-08-14T14:56:43;12.40;;;7.83;;
16890;SDS011;8562;52.246;20.966;2022-08-14T14:59:11;9.20;;;7.47;;
16890;SDS011;8562;52.246;20.966;2022-08-14T15:01:38;10.20;;;8.63;;
16890;SDS011;8562;52.246;20.966;2022-08-14T15:04:05;9.70;;;7.97;;
16890;SDS011;8562;52.246;20.966;2022-08-14T15:06:33;12.00;;;8.03;;
16890;SDS011;8562;52.246;20.966;2022-08-14T15:09:00;13.37;;;8.47;;
16890;SDS011;8562;52.246;20.966;2022-08-14T15:11:26;9.77;;;7.40;;
16890;SDS011;8562;52.246;20.966;2022-08-14T15:13:53;9.23;;;7.77;;
16890;SDS011;8562;52.246;20.966;2022-08-14T15:16:19;8.50;;;7.30;;